Time;durP1;ratioP1;P1;durP2;ratioP2;P2;SDS_P1;SDS_P2;PMS_P1;PMS_P2;Temp;Humidity;BMP_temperature;BMP_pressure;BME280_temperature;BME280_humidity;BME280_pressure;Samples;Min_cycle;Max_cycle;Signal;HPM_P1;HPM_P2
2022/05/17 07:58:49;;;;;;;13.18;6.75;;;;;;;17.70;78.67;101966.44;5324862;27;1197968;-77
2022/05/17 08:01:21;;;;;;;12.25;7.63;;;;;;;17.71;79.11;101965.28;5342345;27;20102;-70
2022/05/17 08:03:52;;;;;;;15.55;6.97;;;;;;;17.78;79.08;101962.91;5342974;28;20142;-69
2022/05/17 08:06:24;;;;;;;15.40;7.13;;;;;;;17.83;79.53;101966.78;5342720;27;20375;-70
2022/05/17 08:08:55;;;;;;;16.75;8.05;;;;;;;17.90;80.67;101978.44;5343610;28;20110;-70
2022/05/17 08:11:26;;;;;;;18.98;7.70;;;;;;;17.85;81.17;101978.53;5342976;28;20019;-70
2022/05/17 08:13:58;;;;;;;11.38;7.55;;;;;;;17.89;80.50;101979.56;5342901;28;20111;-71
2022/05/17 08:16:32;;;;;;;18.42;7.80;;;;;;;17.91;79.73;101972.50;5343363;28;20038;-69
2022/05/17 08:19:03;;;;;;;20.58;8.20;;;;;;;18.01;79.31;101968.66;5343224;27;20022;-70
2022/05/17 08:21:35;;;;;;;15.93;7.97;;;;;;;18.03;80.82;101977.59;5341857;27;20474;-70
2022/05/17 08:24:07;;;;;;;13.82;7.22;;;;;;;18.07;79.44;101970.19;5343182;27;20070;-69
2022/05/17 08:29:28;;;;;;;16.63;7.93;;;;;;;18.12;80.76;101974.88;5342947;28;20063;-69
2022/05/17 08:34:49;;;;;;;16.38;8.00;;;;;;;18.14;81.08;101972.59;5342622;28;20119;-70
2022/05/17 08:37:21;;;;;;;11.73;7.47;;;;;;;18.15;80.56;101969.47;5343013;27;20106;-70
2022/05/17 08:39:55;;;;;;;12.05;7.13;;;;;;;18.30;78.34;101975.88;5342480;28;20096;-70
2022/05/17 08:42:59;;;;;;;13.10;7.43;;;;;;;18.31;80.03;101971.94;5341980;27;20059;-70
2022/05/17 08:45:44;;;;;;;13.90;7.32;;;;;;;18.39;76.81;101974.00;5313261;27;20440;-70
2022/05/17 08:48:17;;;;;;;10.23;6.53;;;;;;;18.34;77.47;101971.31;5342950;27;20048;-70
2022/05/17 08:50:49;;;;;;;12.25;7.97;;;;;;;18.36;78.08;101969.03;5341389;27;20057;-72
2022/05/17 08:53:20;;;;;;;15.43;9.02;;;;;;;18.34;77.47;101971.31;5342687;27;20027;-71
2022/05/17 08:55:52;;;;;;;13.60;8.13;;;;;;;18.45;76.82;101975.53;5341474;27;20026;-70
2022/05/17 08:58:28;;;;;;;15.00;7.15;;;;;;;18.40;77.75;101973.66;5333040;27;20047;-72
2022/05/17 09:01:10;;;;;;;9.45;6.60;;;;;;;18.57;75.02;101970.19;5332679;28;20024;-71
2022/05/17 09:03:53;;;;;;;7.78;6.70;;;;;;;18.60;75.06;101968.75;5341866;27;20050;-72
2022/05/17 09:06:55;;;;;;;7.63;5.68;;;;;;;18.71;74.08;101963.69;5341207;27;20100;-70
2022/05/17 09:09:48;;;;;;;10.93;7.10;;;;;;;18.69;74.92;101966.84;5331776;27;20034;-70
2022/05/17 09:12:19;;;;;;;16.00;6.70;;;;;;;18.77;73.26;101970.91;5326213;28;20443;-70
2022/05/17 09:14:56;;;;;;;9.27;4.60;;;;;;;18.93;71.39;101968.53;5327619;28;20036;-72
2022/05/17 09:17:31;;;;;;;11.05;5.70;;;;;;;18.86;71.79;101954.94;5326154;28;20301;-70
2022/05/17 09:20:04;;;;;;;7.50;5.57;;;;;;;18.95;69.98;101963.44;5325469;28;20028;-70
2022/05/17 09:22:36;;;;;;;10.57;4.55;;;;;;;19.01;69.22;101957.34;5324812;28;20048;-70
2022/05/17 09:25:18;;;;;;;7.85;5.13;;;;;;;18.99;70.32;101953.19;5324221;28;20043;-70
2022/05/17 09:27:52;;;;;;;7.63;4.65;;;;;;;19.08;68.80;101946.50;5324410;28;20054;-69
2022/05/17 09:30:23;;;;;;;7.47;4.63;;;;;;;19.04;69.88;101951.06;5325634;28;20458;-69
2022/05/17 09:33:08;;;;;;;6.55;4.70;;;;;;;19.14;69.43;101943.53;5325834;28;20330;-70
2022/05/17 09:35:44;;;;;;;9.40;5.13;;;;;;;19.14;69.59;101943.53;5306391;28;20024;-70
2022/05/17 09:38:15;;;;;;;;;;;;;;;19.26;69.36;101947.41;5305806;28;20028;-70
2022/05/17 09:40:50;;;;;;;8.97;4.80;;;;;;;19.17;68.83;101940.09;5306494;28;20340;-71
2022/05/17 09:43:44;;;;;;;9.45;4.93;;;;;;;19.28;68.86;101944.31;5306260;28;20028;-68
2022/05/17 09:46:26;;;;;;;12.45;5.75;;;;;;;19.20;70.12;101945.91;5314652;28;20024;-70
2022/05/17 09:54:49;;;;;;;14.32;6.85;;;;;;;19.61;68.45;101930.72;5327164;28;20043;-69
2022/05/17 09:57:31;;;;;;;9.80;5.70;;;;;;;19.75;66.29;101925.00;5326606;28;20043;-72
2022/05/17 10:00:12;;;;;;;11.93;5.55;;;;;;;19.91;67.67;101931.81;5325713;28;20020;-69
2022/05/17 10:02:53;;;;;;;11.73;5.38;;;;;;;20.02;65.83;101923.06;5325611;27;20023;-70
2022/05/17 10:05:29;;;;;;;9.15;5.28;;;;;;;20.13;66.62;101922.44;5326537;28;20023;-69
2022/05/17 10:08:02;;;;;;;;;;;;;;;20.33;65.42;101917.34;5326200;28;20018;-69
2022/05/17 10:10:43;;;;;;;6.40;4.38;;;;;;;20.30;65.58;101924.47;5326933;28;19972;-69
2022/05/17 10:13:35;;;;;;;8.98;5.32;;;;;;;20.30;64.94;101912.34;5325468;28;20374;-71
2022/05/17 10:16:22;;;;;;;6.90;4.35;;;;;;;20.31;63.43;101914.84;5322121;28;20069;-73
2022/05/17 10:19:39;;;;;;;9.27;3.97;;;;;;;20.36;63.25;101906.22;5313494;28;20032;-72
2022/05/17 10:22:32;;;;;;;7.28;3.75;;;;;;;20.48;63.15;101907.53;5274778;28;20134;-72
2022/05/17 10:25:18;;;;;;;8.13;4.07;;;;;;;20.49;62.29;101906.41;5326328;28;20032;-72
2022/05/17 10:27:56;;;;;;;6.88;3.75;;;;;;;20.51;61.37;101895.63;5325775;28;20439;-72
2022/05/17 10:30:53;;;;;;;7.10;4.30;;;;;;;20.57;61.79;101899.97;5326604;28;20415;-74
2022/05/17 10:33:57;;;;;;;8.57;4.03;;;;;;;20.61;61.71;101896.16;5321833;28;20035;-72
2022/05/17 10:36:51;;;;;;;9.65;3.40;;;;;;;20.79;61.60;101896.97;5294508;28;20040;-73
2022/05/17 10:39:53;;;;;;;13.27;4.13;;;;;;;20.85;60.69;101889.16;5326294;27;20020;-72
2022/05/17 10:42:27;;;;;;;8.75;3.47;;;;;;;20.95;58.66;101894.44;5324539;28;20023;-73
2022/05/17 10:44:58;;;;;;;6.47;3.42;;;;;;;20.95;58.56;101887.97;5326797;28;20027;-75
2022/05/17 10:47:57;;;;;;;11.32;3.65;;;;;;;21.11;58.50;101897.53;5326003;28;20024;-74
2022/05/17 10:50:42;;;;;;;6.82;3.78;;;;;;;21.12;58.19;101881.47;5325208;27;20486;-75
2022/05/17 10:53:44;;;;;;;7.68;3.58;;;;;;;21.24;57.73;101882.41;5326089;28;20489;-76
2022/05/17 10:56:34;;;;;;;8.57;3.60;;;;;;;21.37;57.25;101888.16;5312322;28;20031;-75
2022/05/17 10:59:21;;;;;;;7.78;3.50;;;;;;;21.43;57.41;101886.84;5325855;28;20054;-75
2022/05/17 11:02:04;;;;;;;7.38;3.42;;;;;;;21.56;56.77;101882.16;5326053;28;20360;-75
2022/05/17 11:05:01;;;;;;;6.78;4.07;;;;;;;21.55;55.85;101884.16;5325189;28;20024;-72
2022/05/17 11:07:57;;;;;;;6.35;3.90;;;;;;;21.65;55.78;101878.13;5324831;28;20023;-73
2022/05/17 11:10:51;;;;;;;7.70;4.40;;;;;;;21.76;55.46;101881.38;5324458;28;20050;-74
2022/05/17 11:13:42;;;;;;;8.57;4.50;;;;;;;21.91;55.49;101868.66;5325687;28;20027;-76
2022/05/17 11:16:19;;;;;;;6.20;4.40;;;;;;;21.91;55.35;101865.84;5324781;28;20374;-75
2022/05/17 11:19:05;;;;;;;10.15;6.18;;;;;;;22.05;55.22;101862.75;5323498;28;20059;-75
2022/05/17 11:21:49;;;;;;;8.88;5.40;;;;;;;22.24;54.72;101856.63;5324645;28;20107;-76
2022/05/17 11:24:50;;;;;;;8.52;6.65;;;;;;;22.24;54.47;101857.47;5313114;28;20051;-75
2022/05/17 11:27:36;;;;;;;9.25;5.93;;;;;;;22.41;54.39;101845.19;5304658;28;20032;-74
2022/05/17 11:30:28;;;;;;;;;;;;;;;22.50;54.53;101845.94;5323865;28;20024;-70
2022/05/17 11:33:25;;;;;;;11.43;5.95;;;;;;;22.56;53.76;101838.88;5324172;28;19919;-74
2022/05/17 11:36:02;;;;;;;7.70;4.95;;;;;;;22.69;53.37;101838.94;5325061;28;20031;-73
2022/05/17 11:38:37;;;;;;;12.80;6.05;;;;;;;22.83;52.30;101841.44;5324738;28;20027;-72
2022/05/17 11:41:17;;;;;;;10.93;5.00;;;;;;;22.92;52.47;101831.69;5325069;28;20028;-72
2022/05/17 11:44:02;;;;;;;6.85;4.68;;;;;;;22.98;51.74;101835.97;5324994;28;20065;-72
2022/05/17 11:46:43;;;;;;;9.50;4.75;;;;;;;23.22;51.50;101823.03;5323910;28;20058;-74
2022/05/17 11:49:17;;;;;;;12.75;4.70;;;;;;;23.33;51.39;101821.38;5324841;28;20050;-75
2022/05/17 11:51:57;;;;;;;10.85;8.30;;;;;;;23.37;50.98;101810.19;5324202;28;20031;-74
2022/05/17 11:54:49;;;;;;;6.20;3.83;;;;;;;23.53;50.75;101813.13;5324567;28;20024;-74
2022/05/17 11:57:26;;;;;;;8.50;4.10;;;;;;;23.59;49.83;101812.50;5324885;28;20050;-73
2022/05/17 12:00:04;;;;;;;5.78;3.95;;;;;;;23.64;48.81;101798.13;5323894;28;20031;-75
2022/05/17 12:02:49;;;;;;;8.57;3.72;;;;;;;23.73;48.65;101800.88;5323271;28;20128;-77
2022/05/17 12:05:42;;;;;;;7.60;3.10;;;;;;;23.87;49.07;101801.28;5319799;28;20027;-73
2022/05/17 12:08:40;;;;;;;9.77;3.20;;;;;;;24.02;48.00;101796.06;5325101;28;20063;-74
2022/05/17 12:11:11;;;;;;;7.45;2.15;;;;;;;24.30;47.95;101788.38;5325246;28;20028;-74
2022/05/17 12:13:48;;;;;;;7.70;3.50;;;;;;;24.18;46.79;101785.59;5318264;28;20028;-74
2022/05/17 12:16:25;;;;;;;7.13;2.88;;;;;;;24.49;46.87;101778.41;5303823;28;20067;-74
2022/05/17 12:19:04;;;;;;;6.43;3.20;;;;;;;24.49;46.80;101782.09;5324087;28;20525;-74
2022/05/17 12:22:09;;;;;;;23.25;19.60;;;;;;;24.46;46.75;101770.63;5323861;28;20032;-74
2022/05/17 12:25:09;;;;;;;6.93;2.80;;;;;;;24.57;46.60;101771.78;5325014;28;20433;-74
2022/05/17 12:27:43;;;;;;;4.05;2.30;;;;;;;24.44;46.69;101758.78;5323867;28;20639;-74
2022/05/17 12:30:53;;;;;;;7.28;2.63;;;;;;;24.59;46.35;101757.22;5324527;28;20026;-75
2022/05/17 12:33:27;;;;;;;4.72;2.85;;;;;;;24.76;45.27;101758.88;5324117;28;20042;-73
2022/05/17 12:36:16;;;;;;;6.00;2.95;;;;;;;24.81;45.31;101748.09;5324417;28;20047;-73
2022/05/17 12:44:56;;;;;;;6.20;3.58;;;;;;;25.13;44.17;101743.22;5327641;28;20397;-73
2022/05/17 12:47:34;;;;;;;5.93;2.90;;;;;;;25.29;44.67;101745.25;5326614;28;20027;-73
2022/05/17 12:50:13;;;;;;;6.00;2.75;;;;;;;25.13;43.25;101737.56;5327845;28;20338;-73
2022/05/17 12:52:46;;;;;;;4.07;2.30;;;;;;;25.14;43.81;101744.88;5328046;28;20044;-73
2022/05/17 12:55:22;;;;;;;4.40;2.13;;;;;;;24.94;44.15;101746.78;5327339;28;20027;-73
2022/05/17 12:57:55;;;;;;;6.30;2.30;;;;;;;24.80;43.63;101745.59;5327790;28;20044;-73
2022/05/17 13:00:29;;;;;;;5.43;2.63;;;;;;;24.92;43.90;101742.69;5328435;28;20042;-73
2022/05/17 13:03:17;;;;;;;7.85;2.50;;;;;;;25.08;43.69;101735.00;5327643;28;20028;-73
2022/05/17 13:05:51;;;;;;;9.27;2.88;;;;;;;25.22;43.31;101730.88;5327281;28;20130;-75
2022/05/17 13:08:30;;;;;;;3.00;2.33;;;;;;;25.50;43.00;101725.88;5319862;28;20028;-75
2022/05/17 13:11:25;;;;;;;5.68;2.63;;;;;;;25.74;42.93;101726.78;5320537;28;20519;-74
2022/05/17 13:13:59;;;;;;;9.60;3.33;;;;;;;25.73;42.45;101725.97;5319399;28;20042;-72
2022/05/17 13:16:33;;;;;;;5.78;2.40;;;;;;;25.79;42.46;101718.78;5327972;27;20024;-74
2022/05/17 13:19:09;;;;;;;5.00;2.07;;;;;;;25.84;42.44;101714.81;5328046;28;20030;-75
2022/05/17 13:21:44;;;;;;;6.22;2.67;;;;;;;26.06;42.29;101703.94;5327270;27;20277;-74
2022/05/17 13:24:29;;;;;;;6.70;2.30;;;;;;;25.98;42.18;101709.47;5325417;28;20118;-74
2022/05/17 13:27:29;;;;;;;3.53;2.30;;;;;;;26.03;41.72;101711.19;5312275;28;20030;-73
2022/05/17 13:30:23;;;;;;;5.78;2.83;;;;;;;26.00;41.59;101709.94;5326608;28;20032;-73
2022/05/17 13:32:57;;;;;;;6.57;2.67;;;;;;;26.08;41.70;101705.22;5327354;28;20015;-74
2022/05/17 13:35:37;;;;;;;7.88;3.72;;;;;;;26.22;41.39;101696.94;5327915;28;20027;-74
2022/05/17 13:38:38;;;;;;;5.20;2.42;;;;;;;26.49;41.23;101710.47;5367833;22;20056;-74
2022/05/17 13:41:30;;;;;;;3.88;2.28;;;;;;;26.39;40.79;101704.19;5283680;28;20348;-74
2022/05/17 13:44:01;;;;;;;4.80;2.28;;;;;;;26.65;40.15;101694.09;5283994;28;20036;-74
2022/05/17 13:46:39;;;;;;;6.95;3.00;;;;;;;26.67;40.35;101692.53;5284636;28;20494;-74
2022/05/17 13:49:22;;;;;;;2.65;1.90;;;;;;;26.61;40.26;101693.22;5284545;28;20024;-73
2022/05/17 13:52:26;;;;;;;4.07;2.42;;;;;;;26.84;39.95;101690.34;5283711;28;20024;-73
2022/05/17 13:55:13;;;;;;;5.05;2.13;;;;;;;26.73;39.68;101687.34;5284947;28;20052;-74
2022/05/17 13:57:52;;;;;;;4.63;2.80;;;;;;;26.92;39.60;101677.91;5284217;28;20099;-76
2022/05/17 14:00:28;;;;;;;6.40;2.47;;;;;;;27.00;39.74;101681.69;5283147;28;20043;-73
2022/05/17 14:03:15;;;;;;;5.15;2.30;;;;;;;26.79;39.84;101673.59;5269481;28;20016;-75
2022/05/17 14:05:54;;;;;;;8.00;2.55;;;;;;;26.67;40.33;101660.41;5263679;28;20434;-76
2022/05/17 14:14:15;;;;;;;4.85;2.30;;;;;;;27.05;39.03;101664.28;5283353;28;20032;-75
2022/05/17 14:16:57;;;;;;;4.88;2.60;;;;;;;27.18;38.89;101660.03;5284136;28;20035;-74
2022/05/17 14:19:31;;;;;;;4.85;2.22;;;;;;;27.24;38.13;101669.88;5282970;28;20078;-73
2022/05/17 14:22:07;;;;;;;5.10;2.60;;;;;;;27.26;38.36;101664.63;5283278;28;20498;-72
2022/05/17 14:24:38;;;;;;;7.47;2.80;;;;;;;27.22;37.77;101654.38;5284293;28;20543;-73
2022/05/17 14:27:17;;;;;;;4.57;2.60;;;;;;;27.36;37.83;101653.78;5280944;28;20192;-74
2022/05/17 14:29:49;;;;;;;4.00;2.60;;;;;;;27.39;37.42;101644.44;5282390;28;20119;-76
2022/05/17 14:32:20;;;;;;;3.15;2.50;;;;;;;27.25;38.02;101650.75;5283856;28;20112;-73
2022/05/17 14:34:53;;;;;;;9.70;3.45;;;;;;;27.21;38.53;101644.19;5283304;28;20379;-73
2022/05/17 14:37:24;;;;;;;6.82;3.92;;;;;;;26.99;38.56;101655.22;5283111;28;20031;-73
2022/05/17 14:39:57;;;;;;;4.15;2.75;;;;;;;26.91;38.42;101653.47;5284168;28;20029;-74
2022/05/17 14:42:28;;;;;;;8.07;3.92;;;;;;;26.75;38.73;101639.41;5283395;28;20443;-74
2022/05/17 14:45:00;;;;;;;4.63;2.70;;;;;;;26.76;38.52;101638.19;5284115;28;20132;-74
2022/05/17 14:47:31;;;;;;;5.80;3.85;;;;;;;26.83;38.21;101641.16;5282620;28;20071;-73
2022/05/17 14:50:03;;;;;;;5.30;2.85;;;;;;;27.10;38.25;101638.31;5282971;28;20032;-73
2022/05/17 14:52:34;;;;;;;4.03;2.60;;;;;;;26.87;38.43;101638.38;5282004;28;20027;-72
2022/05/17 14:55:07;;;;;;;5.25;2.50;;;;;;;26.85;38.87;101630.22;5282431;28;20494;-73
2022/05/17 14:57:39;;;;;;;6.35;2.50;;;;;;;26.78;38.80;101632.94;5282826;28;20128;-74
2022/05/17 15:00:24;;;;;;;3.85;2.55;;;;;;;26.65;39.04;101626.66;5282863;28;20131;-75
2022/05/17 15:03:04;;;;;;;5.10;2.63;;;;;;;26.73;38.96;101624.75;5280961;28;20371;-76
2022/05/17 15:05:35;;;;;;;8.15;6.95;;;;;;;26.68;39.13;101620.19;5282721;28;20036;-75
2022/05/17 15:08:09;;;;;;;3.78;2.45;;;;;;;26.74;39.37;101620.72;5282204;28;20454;-74
2022/05/17 15:10:41;;;;;;;5.53;3.50;;;;;;;26.74;39.81;101611.31;5280144;28;20044;-74
2022/05/17 15:13:12;;;;;;;6.03;3.40;;;;;;;26.70;39.83;101614.13;5282726;28;20351;-74
2022/05/17 15:15:47;;;;;;;5.72;3.15;;;;;;;26.70;39.86;101613.31;5280878;28;20028;-74
2022/05/17 15:18:22;;;;;;;;;;;;;;;26.81;39.89;101612.25;5283603;28;20470;-75
2022/05/17 15:20:55;;;;;;;3.95;2.80;;;;;;;26.66;39.92;101604.72;5282998;28;19923;-75
2022/05/17 15:23:31;;;;;;;9.32;3.33;;;;;;;26.66;39.75;101601.88;5282662;28;20116;-74
2022/05/17 15:26:05;;;;;;;15.13;13.63;;;;;;;26.78;39.94;101604.50;5283088;28;20527;-74
2022/05/17 15:28:37;;;;;;;5.25;3.55;;;;;;;26.69;39.94;101601.13;5282154;28;20035;-72
2022/05/17 15:31:11;;;;;;;5.38;3.30;;;;;;;26.83;40.20;101611.88;5282114;28;20044;-73
2022/05/17 15:33:44;;;;;;;8.52;2.80;;;;;;;26.84;39.78;101602.97;5282170;28;20033;-72
2022/05/17 15:36:16;;;;;;;5.43;3.25;;;;;;;26.81;39.66;101600.88;5282448;28;20031;-72
2022/05/17 15:38:47;;;;;;;5.18;2.70;;;;;;;26.86;39.76;101588.34;5281813;28;20049;-72
2022/05/17 15:41:19;;;;;;;5.22;3.22;;;;;;;26.94;39.89;101584.41;5281319;28;20017;-73
2022/05/17 15:43:52;;;;;;;5.93;5.03;;;;;;;26.94;39.72;101580.75;5280329;28;20368;-74
2022/05/17 15:46:25;;;;;;;7.93;3.15;;;;;;;26.92;39.87;101581.16;5281370;28;20482;-74
2022/05/17 15:54:38;;;;;;;3.78;2.83;;;;;;;26.87;39.84;101585.13;5281787;28;20076;-75
2022/05/17 15:57:10;;;;;;;9.27;5.00;;;;;;;27.00;40.15;101582.06;5281977;28;20048;-74
2022/05/17 15:59:41;;;;;;;3.78;3.10;;;;;;;26.88;39.94;101578.22;5281741;28;20158;-77
2022/05/17 16:02:14;;;;;;;7.35;3.88;;;;;;;26.91;39.87;101584.38;5281886;28;20107;-79
2022/05/17 16:05:02;;;;;;;7.20;4.55;;;;;;;26.92;40.18;101581.16;5263352;28;20029;-79
2022/05/17 16:10:26;;;;;;;4.28;2.88;;;;;;;26.81;40.40;101575.28;5282613;28;20037;-75
2022/05/17 16:12:59;;;;;;;7.60;3.08;;;;;;;26.93;39.92;101576.25;5281545;28;20043;-75
2022/05/17 16:15:32;;;;;;;4.32;3.20;;;;;;;26.83;40.58;101580.59;5283006;28;20029;-80
2022/05/17 16:18:12;;;;;;;8.35;3.15;;;;;;;26.82;40.68;101576.13;5264377;28;20044;-81
2022/05/17 16:20:45;;;;;;;4.38;2.80;;;;;;;26.76;40.80;101567.06;5286581;28;20035;-80
2022/05/17 16:23:18;;;;;;;8.88;3.63;;;;;;;27.01;40.29;101569.47;5282609;28;20372;-79
2022/05/17 16:25:49;;;;;;;6.03;3.17;;;;;;;27.03;40.24;101567.88;5285730;28;20063;-79
2022/05/17 16:28:20;;;;;;;19.23;17.23;;;;;;;27.08;40.33;101572.41;5284942;28;20029;-79
2022/05/17 16:30:52;;;;;;;5.68;3.28;;;;;;;27.00;40.07;101567.84;5286914;28;20028;-79
2022/05/17 16:33:23;;;;;;;19.02;15.20;;;;;;;27.05;40.12;101567.50;5285471;28;20027;-81
2022/05/17 16:35:57;;;;;;;7.85;5.38;;;;;;;27.14;40.35;101558.66;5331024;22;20057;-79
2022/05/17 16:38:29;;;;;;;4.75;2.75;;;;;;;27.10;40.47;101559.44;5248306;28;20033;-79
2022/05/17 16:41:06;;;;;;;4.68;3.20;;;;;;;27.30;40.22;101562.97;5265204;28;20017;-79
2022/05/17 16:43:40;;;;;;;5.68;3.42;;;;;;;27.27;40.25;101563.72;5265043;28;20495;-77
2022/05/17 16:46:12;;;;;;;4.85;3.33;;;;;;;27.38;40.30;101558.19;5263088;28;20071;-80
2022/05/17 16:48:44;;;;;;;4.47;3.10;;;;;;;27.42;40.59;101558.22;5257730;28;20048;-78
2022/05/17 16:51:15;;;;;;;4.97;3.17;;;;;;;27.42;40.18;101563.91;5265196;28;20029;-79
2022/05/17 16:53:47;;;;;;;5.95;3.38;;;;;;;27.42;40.30;101564.72;5259664;28;20044;-79
2022/05/17 16:56:18;;;;;;;5.57;3.30;;;;;;;27.41;40.37;101562.28;5265397;28;20103;-81
2022/05/17 16:58:49;;;;;;;7.13;2.85;;;;;;;27.44;40.23;101567.22;5257219;28;20040;-77
2022/05/17 17:01:23;;;;;;;4.35;3.28;;;;;;;27.49;40.16;101559.13;5264361;28;20036;-80
2022/05/17 17:07:42;;;;;;;4.55;3.10;;;;;;;27.46;40.40;101553.41;5270323;22;20151;-79
2022/05/17 17:10:33;;;;;;;6.72;3.75;;;;;;;27.54;40.56;101563.66;5263580;28;20036;-84
2022/05/17 17:13:05;;;;;;;5.00;3.70;;;;;;;27.41;40.30;101557.41;5264529;28;20025;-80
2022/05/17 17:15:37;;;;;;;6.53;3.00;;;;;;;27.40;40.53;101554.94;5262227;28;20047;-80
2022/05/17 17:18:09;;;;;;;5.03;3.00;;;;;;;27.36;40.64;101556.94;5265228;28;20033;-82
2022/05/17 17:20:42;;;;;;;3.78;3.10;;;;;;;27.32;40.54;101560.53;5266093;28;20025;-80
2022/05/17 17:23:16;;;;;;;7.28;3.17;;;;;;;27.29;40.94;101567.03;5265399;28;20037;-82
2022/05/17 17:25:47;;;;;;;5.28;3.15;;;;;;;27.06;41.20;101557.75;5247899;28;20033;-82
2022/05/17 17:28:27;;;;;;;7.15;3.28;;;;;;;27.06;41.30;101563.44;5266107;28;20128;-81
